Time;durP1;ratioP1;P1;durP2;ratioP2;P2;SDS_P1;SDS_P2;PMS_P1;PMS_P2;Temp;Humidity;BMP_temperature;BMP_pressure;BME280_temperature;BME280_humidity;BME280_pressure;Samples;Min_cycle;Max_cycle;Signal;HPM_P1;HPM_P2
2023/10/06 00:00:40;;;;;;;2.78;1.27;;;;;;;;;;6177328;28;20035;-78
2023/10/06 00:03:44;;;;;;;1.52;1.08;;;;;;;;;;6173675;28;20035;-78
2023/10/06 00:06:45;;;;;;;3.20;1.42;;;;;;;;;;6177926;28;20030;-77
2023/10/06 00:09:46;;;;;;;3.63;1.38;;;;;;;;;;6174545;28;20035;-82
2023/10/06 00:12:50;;;;;;;2.30;1.10;;;;;;;;;;6179785;28;20058;-76
2023/10/06 00:15:51;;;;;;;3.08;1.25;;;;;;;;;;6166566;28;20027;-77
2023/10/06 00:18:53;;;;;;;1.60;1.05;;;;;;;;;;6172684;28;20053;-77
2023/10/06 00:25:18;;;;;;;2.78;1.23;;;;;;;;;;6176056;28;20034;-77
2023/10/06 00:28:22;;;;;;;2.15;1.35;;;;;;;;;;6170465;28;20031;-78
2023/10/06 00:31:23;;;;;;;2.25;1.20;;;;;;;;;;6174757;28;20026;-77
2023/10/06 00:34:29;;;;;;;2.72;1.20;;;;;;;;;;6152963;28;20128;-77
2023/10/06 00:37:30;;;;;;;1.95;1.08;;;;;;;;;;6175314;28;20050;-77
2023/10/06 00:40:30;;;;;;;2.13;1.03;;;;;;;;;;6177313;28;20023;-77
2023/10/06 00:43:43;;;;;;;2.07;1.20;;;;;;;;;;6179597;28;20109;-77
2023/10/06 00:46:43;;;;;;;3.00;1.58;;;;;;;;;;6181892;28;20144;-77
2023/10/06 00:49:44;;;;;;;1.50;1.00;;;;;;;;;;6162216;28;20054;-78
2023/10/06 00:52:44;;;;;;;2.50;1.27;;;;;;;;;;6182344;28;20032;-77
2023/10/06 00:55:45;;;;;;;2.07;1.20;;;;;;;;;;6178044;28;20113;-78
2023/10/06 00:58:45;;;;;;;1.52;1.00;;;;;;;;;;6168439;28;20023;-78
2023/10/06 01:01:46;;;;;;;2.90;1.47;;;;;;;;;;6175036;28;20514;-78
2023/10/06 01:04:52;;;;;;;1.90;1.20;;;;;;;;;;6178146;28;20285;-78
2023/10/06 01:07:52;;;;;;;1.75;1.10;;;;;;;;;;6175770;28;20471;-78
2023/10/06 01:11:02;;;;;;;1.87;1.13;;;;;;;;;;6171311;28;20032;-78
2023/10/06 01:14:02;;;;;;;1.35;1.00;;;;;;;;;;6189011;28;20026;-79
2023/10/06 01:17:17;;;;;;;3.37;1.27;;;;;;;;;;6176339;28;20403;-78
2023/10/06 01:20:33;;;;;;;1.52;1.10;;;;;;;;;;6175263;28;20722;-78
2023/10/06 01:23:34;;;;;;;1.73;1.02;;;;;;;;;;6178217;28;20041;-79
2023/10/06 01:26:34;;;;;;;2.47;1.23;;;;;;;;;;6176360;28;20030;-79
2023/10/06 01:29:35;;;;;;;2.15;1.30;;;;;;;;;;6181669;28;20536;-78
2023/10/06 01:32:35;;;;;;;1.80;1.10;;;;;;;;;;6175883;28;20054;-78
2023/10/06 01:35:40;;;;;;;2.40;1.20;;;;;;;;;;6179167;28;20486;-78
2023/10/06 01:38:43;;;;;;;2.03;1.20;;;;;;;;;;6193446;28;20105;-78
2023/10/06 01:41:47;;;;;;;3.15;1.10;;;;;;;;;;6268222;28;20076;-79
2023/10/06 01:44:47;;;;;;;2.75;1.40;;;;;;;;;;6182714;28;20017;-79
2023/10/06 01:47:55;;;;;;;1.60;1.20;;;;;;;;;;6192882;28;20065;-81
2023/10/06 01:50:55;;;;;;;2.22;1.17;;;;;;;;;;6185422;28;20031;-78
2023/10/06 01:53:55;;;;;;;1.88;1.20;;;;;;;;;;6197536;28;20356;-78
2023/10/06 01:56:56;;;;;;;2.00;1.03;;;;;;;;;;6195992;28;20387;-77
2023/10/06 01:59:56;;;;;;;1.90;1.17;;;;;;;;;;6197398;28;20027;-78
2023/10/06 02:02:56;;;;;;;2.10;1.10;;;;;;;;;;6199080;28;20091;-79
2023/10/06 02:05:59;;;;;;;2.70;1.33;;;;;;;;;;6201020;28;20029;-79
2023/10/06 02:09:01;;;;;;;1.58;1.00;;;;;;;;;;6220479;28;20444;-78
2023/10/06 02:12:03;;;;;;;2.38;1.00;;;;;;;;;;6201654;28;20026;-78
2023/10/06 02:15:10;;;;;;;;;;;;;;;;;;6181059;28;20061;-78
2023/10/06 02:18:12;;;;;;;2.05;1.10;;;;;;;;;;6205159;28;20359;-77
2023/10/06 02:21:14;;;;;;;1.30;0.95;;;;;;;;;;6179024;28;20372;-77
2023/10/06 02:24:16;;;;;;;2.38;0.93;;;;;;;;;;6181287;28;20034;-77
2023/10/06 02:27:16;;;;;;;2.05;1.25;;;;;;;;;;6177624;28;20030;-77
2023/10/06 02:30:19;;;;;;;2.20;1.33;;;;;;;;;;6196674;28;20029;-77
2023/10/06 02:33:19;;;;;;;2.03;1.35;;;;;;;;;;6219467;28;20025;-81
2023/10/06 02:36:21;;;;;;;2.37;1.20;;;;;;;;;;6200537;28;20057;-81
2023/10/06 02:39:21;;;;;;;2.00;1.02;;;;;;;;;;6182510;28;20033;-77
2023/10/06 02:42:21;;;;;;;3.17;1.07;;;;;;;;;;6191702;28;20518;-77
2023/10/06 02:45:22;;;;;;;1.33;1.00;;;;;;;;;;6177317;28;20027;-77
2023/10/06 02:48:25;;;;;;;1.33;0.83;;;;;;;;;;6179913;28;20038;-80
2023/10/06 02:51:29;;;;;;;2.17;0.93;;;;;;;;;;6177634;28;20047;-77
2023/10/06 02:54:29;;;;;;;1.65;1.10;;;;;;;;;;6172952;28;20031;-77
2023/10/06 02:57:35;;;;;;;1.27;1.00;;;;;;;;;;6175184;28;20505;-77
2023/10/06 03:00:36;;;;;;;2.20;1.25;;;;;;;;;;6180784;28;20034;-82
2023/10/06 03:03:36;;;;;;;1.70;1.27;;;;;;;;;;6182125;28;20031;-77
2023/10/06 03:06:36;;;;;;;1.40;0.93;;;;;;;;;;6173238;28;20458;-81
2023/10/06 03:09:37;;;;;;;2.50;1.10;;;;;;;;;;6189044;28;20026;-76
2023/10/06 03:12:40;;;;;;;;;;;;;;;;;;6179539;28;20033;-78
2023/10/06 03:15:47;;;;;;;1.35;0.90;;;;;;;;;;6171367;28;19910;-77
2023/10/06 03:18:52;;;;;;;3.38;1.10;;;;;;;;;;6171638;28;20027;-77
2023/10/06 03:21:57;;;;;;;1.77;1.13;;;;;;;;;;6177414;28;20129;-77
2023/10/06 03:25:00;;;;;;;1.65;1.08;;;;;;;;;;6153805;28;20061;-78
2023/10/06 03:28:02;;;;;;;3.67;1.23;;;;;;;;;;6174623;28;20027;-77
2023/10/06 03:31:30;;;;;;;2.75;1.20;;;;;;;;;;6174517;28;20043;-78
2023/10/06 03:34:24;;;;;;;1.80;1.05;;;;;;;;;;6173741;28;20487;-77
2023/10/06 03:37:45;;;;;;;1.37;0.90;;;;;;;;;;6174508;28;20083;-77
2023/10/06 03:41:32;;;;;;;2.42;1.15;;;;;;;;;;6176644;28;20272;-78
2023/10/06 03:44:06;;;;;;;1.67;1.08;;;;;;;;;;6167110;28;20408;-76
2023/10/06 03:47:08;;;;;;;1.92;1.23;;;;;;;;;;6168519;28;20066;-77
2023/10/06 03:50:08;;;;;;;2.10;1.30;;;;;;;;;;6175086;28;20038;-77
2023/10/06 03:53:11;;;;;;;3.10;1.37;;;;;;;;;;6155551;28;20057;-76
2023/10/06 03:56:13;;;;;;;1.92;1.00;;;;;;;;;;6179888;28;20027;-77
2023/10/06 03:59:15;;;;;;;3.28;1.20;;;;;;;;;;6177840;28;20101;-77
2023/10/06 04:02:15;;;;;;;1.75;1.08;;;;;;;;;;6177573;28;20027;-77
2023/10/06 04:05:16;;;;;;;2.57;1.20;;;;;;;;;;6172949;28;20031;-77
2023/10/06 04:08:23;;;;;;;2.63;1.35;;;;;;;;;;6172158;28;20376;-77
2023/10/06 04:11:24;;;;;;;2.38;1.10;;;;;;;;;;6178058;28;20354;-77
2023/10/06 04:14:27;;;;;;;2.47;1.13;;;;;;;;;;6175854;28;20382;-77
2023/10/06 04:17:29;;;;;;;1.92;1.13;;;;;;;;;;6175469;28;20037;-77
2023/10/06 04:20:29;;;;;;;1.75;1.10;;;;;;;;;;6158380;28;20063;-76
2023/10/06 04:23:30;;;;;;;2.57;1.13;;;;;;;;;;6179432;28;20545;-77
2023/10/06 04:26:30;;;;;;;2.13;1.07;;;;;;;;;;6177447;28;20088;-83
2023/10/06 04:29:34;;;;;;;2.50;1.10;;;;;;;;;;6186507;28;20027;-77
2023/10/06 04:32:34;;;;;;;2.45;1.15;;;;;;;;;;6178340;28;20023;-77
2023/10/06 04:35:35;;;;;;;3.50;1.50;;;;;;;;;;6187111;28;20091;-78
2023/10/06 04:38:38;;;;;;;3.50;1.80;;;;;;;;;;6190728;28;20035;-78
2023/10/06 04:41:41;;;;;;;2.03;1.40;;;;;;;;;;6180910;28;20038;-78
2023/10/06 04:44:41;;;;;;;1.92;1.30;;;;;;;;;;6180293;28;20279;-80
2023/10/06 04:47:42;;;;;;;2.15;1.30;;;;;;;;;;6174898;28;20052;-79
2023/10/06 04:50:42;;;;;;;1.83;0.97;;;;;;;;;;6158646;28;20054;-78
2023/10/06 04:53:45;;;;;;;2.13;1.00;;;;;;;;;;6175645;28;20179;-78
2023/10/06 04:56:48;;;;;;;2.05;1.25;;;;;;;;;;6178215;28;20479;-77
2023/10/06 04:59:48;;;;;;;2.33;1.35;;;;;;;;;;6165661;28;20097;-78
2023/10/06 05:02:50;;;;;;;1.73;1.03;;;;;;;;;;6181789;28;20030;-77
2023/10/06 05:05:50;;;;;;;1.85;1.23;;;;;;;;;;6176952;28;20380;-79
2023/10/06 05:08:50;;;;;;;2.30;1.30;;;;;;;;;;6178137;28;20034;-78
2023/10/06 05:11:50;;;;;;;1.77;1.27;;;;;;;;;;6178070;28;20075;-80
2023/10/06 05:14:51;;;;;;;2.07;1.23;;;;;;;;;;6174321;28;20143;-80
2023/10/06 05:17:55;;;;;;;3.50;1.20;;;;;;;;;;6186463;28;20057;-78
2023/10/06 05:20:55;;;;;;;1.52;1.05;;;;;;;;;;6174551;28;20050;-78
2023/10/06 05:23:55;;;;;;;1.73;1.07;;;;;;;;;;6193004;28;20029;-78
2023/10/06 05:26:56;;;;;;;2.90;1.90;;;;;;;;;;6180453;28;20022;-80
2023/10/06 05:29:56;;;;;;;3.20;1.97;;;;;;;;;;6174368;28;20437;-81
2023/10/06 05:32:58;;;;;;;3.58;1.50;;;;;;;;;;6181031;28;20043;-83
2023/10/06 05:35:59;;;;;;;;;;;;;;;;;;6177489;28;20555;-78
2023/10/06 05:39:03;;;;;;;1.27;0.93;;;;;;;;;;6190840;28;19914;-80
2023/10/06 05:42:08;;;;;;;3.45;1.10;;;;;;;;;;6195630;28;20523;-82
2023/10/06 05:45:21;;;;;;;1.83;1.08;;;;;;;;;;6173529;28;20030;-78
2023/10/06 05:48:22;;;;;;;2.75;1.15;;;;;;;;;;6177698;28;20035;-80
2023/10/06 05:51:22;;;;;;;2.40;1.10;;;;;;;;;;6180701;28;20057;-77
2023/10/06 05:54:22;;;;;;;2.83;1.23;;;;;;;;;;6177254;28;20042;-77
2023/10/06 05:57:23;;;;;;;1.90;1.20;;;;;;;;;;6176594;28;20027;-80
2023/10/06 06:00:29;;;;;;;2.20;1.13;;;;;;;;;;6161398;28;20609;-78
2023/10/06 06:03:30;;;;;;;2.78;1.33;;;;;;;;;;6177514;28;20034;-78
2023/10/06 06:06:30;;;;;;;2.63;1.10;;;;;;;;;;6162351;28;20100;-77
2023/10/06 06:09:30;;;;;;;4.17;1.33;;;;;;;;;;6174316;28;20527;-80
2023/10/06 06:12:30;;;;;;;3.43;1.20;;;;;;;;;;6183054;28;20043;-78
2023/10/06 06:15:31;;;;;;;3.20;1.03;;;;;;;;;;6215544;28;20075;-79
2023/10/06 06:18:33;;;;;;;2.35;1.23;;;;;;;;;;6180506;28;20452;-77
2023/10/06 06:21:34;;;;;;;2.92;1.30;;;;;;;;;;6179683;28;20065;-77
2023/10/06 06:24:37;;;;;;;3.08;0.88;;;;;;;;;;6173479;28;20104;-77
2023/10/06 06:27:38;;;;;;;1.48;1.10;;;;;;;;;;6171239;28;20061;-78
2023/10/06 06:30:40;;;;;;;1.67;1.08;;;;;;;;;;6173393;28;20389;-77
2023/10/06 06:33:42;;;;;;;1.87;1.00;;;;;;;;;;6165188;28;20061;-84
2023/10/06 06:36:45;;;;;;;2.42;1.25;;;;;;;;;;6156282;28;20174;-81
2023/10/06 06:39:45;;;;;;;3.65;1.27;;;;;;;;;;6159188;28;20495;-80
2023/10/06 06:42:49;;;;;;;2.73;1.30;;;;;;;;;;6162499;28;20030;-85
2023/10/06 06:45:50;;;;;;;1.55;1.08;;;;;;;;;;6161015;28;20109;-78
2023/10/06 06:48:51;;;;;;;4.00;1.30;;;;;;;;;;6162621;28;20042;-80
2023/10/06 06:51:53;;;;;;;2.88;1.10;;;;;;;;;;6157970;28;20018;-82
2023/10/06 06:54:53;;;;;;;2.55;1.17;;;;;;;;;;6157350;28;20339;-79
2023/10/06 06:57:53;;;;;;;3.90;1.20;;;;;;;;;;6159374;28;20042;-81
2023/10/06 07:00:54;;;;;;;3.77;1.40;;;;;;;;;;6161087;28;20027;-83
2023/10/06 07:03:55;;;;;;;2.38;1.23;;;;;;;;;;6158541;28;20478;-85
2023/10/06 07:06:56;;;;;;;2.30;1.13;;;;;;;;;;6160199;28;20035;-78
2023/10/06 07:09:56;;;;;;;1.80;0.83;;;;;;;;;;6161208;28;20160;-78
2023/10/06 07:12:59;;;;;;;1.17;1.07;;;;;;;;;;6159953;28;20436;-81
2023/10/06 07:15:59;;;;;;;2.10;1.05;;;;;;;;;;6164477;28;20031;-80
2023/10/06 07:18:59;;;;;;;2.00;1.07;;;;;;;;;;6159061;28;20079;-80
2023/10/06 07:22:00;;;;;;;3.03;1.27;;;;;;;;;;6158173;28;20050;-80
2023/10/06 07:25:02;;;;;;;1.50;0.93;;;;;;;;;;6162018;28;20046;-80
2023/10/06 07:28:03;;;;;;;1.92;0.98;;;;;;;;;;6142405;28;20027;-78
2023/10/06 07:31:08;;;;;;;1.80;1.20;;;;;;;;;;6161380;28;20019;-85
2023/10/06 07:34:08;;;;;;;1.73;1.00;;;;;;;;;;6161193;28;20056;-77
2023/10/06 07:37:08;;;;;;;2.40;1.57;;;;;;;;;;6158210;28;20030;-77
2023/10/06 07:40:13;;;;;;;4.10;2.03;;;;;;;;;;6165000;28;20031;-78
2023/10/06 07:43:15;;;;;;;3.25;1.60;;;;;;;;;;6164521;28;20030;-82
2023/10/06 07:46:16;;;;;;;5.15;1.88;;;;;;;;;;6166460;28;20117;-78
2023/10/06 07:49:16;;;;;;;4.22;2.13;;;;;;;;;;6165695;28;20057;-85
2023/10/06 07:52:21;;;;;;;3.30;1.47;;;;;;;;;;6147922;28;20038;-78
2023/10/06 07:55:23;;;;;;;2.00;1.25;;;;;;;;;;6165013;28;20023;-80
2023/10/06 07:58:23;;;;;;;2.92;1.23;;;;;;;;;;6167560;28;20084;-80
2023/10/06 08:01:23;;;;;;;2.23;1.10;;;;;;;;;;6166085;28;20042;-78
2023/10/06 08:04:23;;;;;;;1.10;0.83;;;;;;;;;;6166774;28;20059;-78
2023/10/06 08:07:27;;;;;;;2.13;1.00;;;;;;;;;;6166053;28;20432;-81
2023/10/06 08:10:30;;;;;;;1.58;0.88;;;;;;;;;;6166374;28;20030;-79
2023/10/06 08:13:33;;;;;;;3.47;1.00;;;;;;;;;;6166989;28;20038;-87
2023/10/06 08:16:33;;;;;;;1.90;1.02;;;;;;;;;;6164843;28;20545;-82
2023/10/06 08:19:34;;;;;;;1.60;1.00;;;;;;;;;;6145030;28;20034;-82
2023/10/06 08:22:34;;;;;;;2.08;1.02;;;;;;;;;;6164347;28;20516;-82
2023/10/06 08:25:35;;;;;;;2.40;1.07;;;;;;;;;;6160602;28;20046;-78
2023/10/06 08:28:35;;;;;;;1.45;1.17;;;;;;;;;;6160373;28;20041;-76
2023/10/06 08:31:36;;;;;;;0.90;0.73;;;;;;;;;;6146552;28;20238;-77
2023/10/06 08:34:39;;;;;;;1.80;1.00;;;;;;;;;;6144229;28;20492;-77
2023/10/06 08:37:42;;;;;;;1.38;0.80;;;;;;;;;;6157980;28;20535;-77
2023/10/06 08:40:43;;;;;;;2.67;0.88;;;;;;;;;;6161004;28;20117;-77
2023/10/06 08:43:44;;;;;;;1.63;1.02;;;;;;;;;;6160598;28;20043;-77
2023/10/06 08:46:44;;;;;;;;;;;;;;;;;;6161550;28;20037;-77
2023/10/06 08:49:48;;;;;;;2.40;0.75;;;;;;;;;;6157303;28;20442;-78
2023/10/06 08:52:52;;;;;;;2.15;0.70;;;;;;;;;;6151736;28;20035;-77
2023/10/06 08:55:52;;;;;;;1.67;0.88;;;;;;;;;;6158566;28;20027;-78
2023/10/06 08:58:53;;;;;;;2.27;1.00;;;;;;;;;;6158931;28;20069;-77
2023/10/06 09:01:53;;;;;;;1.30;0.80;;;;;;;;;;6155545;28;20356;-77
2023/10/06 09:04:54;;;;;;;2.17;0.90;;;;;;;;;;6155818;28;20038;-78
2023/10/06 09:07:58;;;;;;;1.73;0.88;;;;;;;;;;6154678;28;20061;-79
2023/10/06 09:10:59;;;;;;;1.73;0.85;;;;;;;;;;6152954;28;20035;-77
2023/10/06 09:14:07;;;;;;;1.55;0.90;;;;;;;;;;6155171;28;20072;-76
2023/10/06 09:17:08;;;;;;;1.77;1.00;;;;;;;;;;6156756;28;20095;-77
2023/10/06 09:20:11;;;;;;;1.40;1.00;;;;;;;;;;6137122;28;20030;-77
2023/10/06 09:23:13;;;;;;;1.35;0.90;;;;;;;;;;6153978;28;20026;-78
2023/10/06 09:26:24;;;;;;;2.33;1.08;;;;;;;;;;6137348;28;20193;-77
2023/10/06 09:29:32;;;;;;;2.45;0.77;;;;;;;;;;6157211;28;20427;-77
2023/10/06 09:32:34;;;;;;;0.90;0.80;;;;;;;;;;6155242;28;20687;-77
2023/10/06 09:35:35;;;;;;;1.70;0.82;;;;;;;;;;6157146;28;21883;-78
2023/10/06 09:38:36;;;;;;;1.70;0.90;;;;;;;;;;6155169;28;20035;-76
2023/10/06 09:41:38;;;;;;;1.65;0.95;;;;;;;;;;6156431;28;20030;-78
2023/10/06 09:44:41;;;;;;;1.88;1.08;;;;;;;;;;6155228;28;20026;-79
2023/10/06 09:47:51;;;;;;;2.08;1.10;;;;;;;;;;6156170;28;20576;-71
2023/10/06 09:50:54;;;;;;;2.03;1.23;;;;;;;;;;6154578;28;20038;-78
2023/10/06 09:53:54;;;;;;;1.90;1.08;;;;;;;;;;6154074;28;20149;-77
2023/10/06 09:56:55;;;;;;;1.02;0.90;;;;;;;;;;6156742;28;20026;-77
2023/10/06 09:59:55;;;;;;;1.48;1.00;;;;;;;;;;6157222;28;20506;-77
2023/10/06 10:02:57;;;;;;;1.33;0.88;;;;;;;;;;6152813;28;20038;-78
2023/10/06 10:06:00;;;;;;;2.53;1.10;;;;;;;;;;6153640;28;20163;-81
2023/10/06 10:09:06;;;;;;;2.20;1.00;;;;;;;;;;6153581;28;20046;-77
2023/10/06 10:12:27;;;;;;;2.13;1.08;;;;;;;;;;6155156;28;20472;-80
2023/10/06 10:15:53;;;;;;;1.45;1.00;;;;;;;;;;6156840;28;20051;-80
2023/10/06 10:19:00;;;;;;;1.75;1.00;;;;;;;;;;6157612;28;20496;-79
2023/10/06 10:22:03;;;;;;;2.67;1.10;;;;;;;;;;6153902;28;20144;-81
2023/10/06 10:25:05;;;;;;;3.03;1.20;;;;;;;;;;6155638;28;20058;-80
2023/10/06 10:28:26;;;;;;;1.85;1.02;;;;;;;;;;6155708;28;20062;-79
2023/10/06 10:31:26;;;;;;;1.67;0.98;;;;;;;;;;6155118;28;20026;-80
2023/10/06 10:34:34;;;;;;;1.83;0.90;;;;;;;;;;6154497;28;20030;-79
2023/10/06 10:37:55;;;;;;;1.58;0.98;;;;;;;;;;6155783;28;20026;-80
2023/10/06 10:40:56;;;;;;;1.92;0.93;;;;;;;;;;6158449;28;20034;-78
2023/10/06 10:43:56;;;;;;;;;;;;;;;;;;6138696;28;20039;-80
2023/10/06 10:47:01;;;;;;;3.07;1.00;;;;;;;;;;6156178;28;19925;-79
2023/10/06 10:50:02;;;;;;;2.30;0.85;;;;;;;;;;6155290;28;20495;-79
2023/10/06 10:53:03;;;;;;;2.10;1.10;;;;;;;;;;6159215;28;20042;-79
2023/10/06 10:56:06;;;;;;;2.60;1.27;;;;;;;;;;6140090;28;20042;-78
2023/10/06 10:59:08;;;;;;;2.00;1.20;;;;;;;;;;6157371;28;20902;-80
2023/10/06 11:02:12;;;;;;;2.83;1.30;;;;;;;;;;6153737;28;21588;-77
2023/10/06 11:05:13;;;;;;;2.00;1.13;;;;;;;;;;6135855;28;20130;-79
2023/10/06 11:08:13;;;;;;;1.60;1.20;;;;;;;;;;6154559;28;20039;-78
2023/10/06 11:11:13;;;;;;;;;;;;;;;;;;6157762;28;20045;-78
2023/10/06 11:14:13;;;;;;;2.40;1.38;;;;;;;;;;6158980;28;19918;-79
2023/10/06 11:17:14;;;;;;;;;;;;;;;;;;6154311;28;20948;-80
2023/10/06 11:20:21;;;;;;;2.57;0.93;;;;;;;;;;6154579;28;20279;-79
2023/10/06 11:23:23;;;;;;;2.20;1.27;;;;;;;;;;6176671;28;20646;-78
2023/10/06 11:26:27;;;;;;;2.70;1.17;;;;;;;;;;6178117;28;20042;-78
2023/10/06 11:29:30;;;;;;;3.25;1.40;;;;;;;;;;6178271;28;20039;-79
2023/10/06 11:32:31;;;;;;;2.03;1.10;;;;;;;;;;6175076;28;20042;-77
2023/10/06 11:35:31;;;;;;;;;;;;;;;;;;6170798;28;20035;-75
2023/10/06 11:38:31;;;;;;;1.88;1.13;;;;;;;;;;6175321;28;19914;-75
2023/10/06 11:41:32;;;;;;;;;;;;;;;;;;6177740;28;20502;-73
2023/10/06 11:44:38;;;;;;;1.60;0.90;;;;;;;;;;6175413;28;19910;-73
2023/10/06 11:47:39;;;;;;;2.08;1.25;;;;;;;;;;6176586;28;20084;-74
2023/10/06 11:50:39;;;;;;;;;;;;;;;;;;6175505;28;20096;-74
2023/10/06 11:53:40;;;;;;;2.78;1.08;;;;;;;;;;6174014;28;20004;-74
2023/10/06 11:56:40;;;;;;;;;;;;;;;;;;6157515;28;20075;-74
2023/10/06 11:59:50;;;;;;;1.70;1.00;;;;;;;;;;6175938;28;19917;-74
2023/10/06 12:02:51;;;;;;;2.50;1.40;;;;;;;;;;6175427;28;20026;-74
2023/10/06 12:05:51;;;;;;;;;;;;;;;;;;6178635;28;20034;-74
2023/10/06 12:08:52;;;;;;;2.28;1.10;;;;;;;;;;6176352;28;19965;-72
2023/10/06 12:11:55;;;;;;;;;;;;;;;;;;6179080;28;20039;-71
2023/10/06 12:14:56;;;;;;;2.20;1.02;;;;;;;;;;6171642;28;19921;-72
2023/10/06 12:17:57;;;;;;;;;;;;;;;;;;6160830;28;20047;-72
2023/10/06 12:20:57;;;;;;;1.73;1.13;;;;;;;;;;6179129;28;19926;-72
2023/10/06 12:23:59;;;;;;;;;;;;;;;;;;6176036;28;20395;-72
2023/10/06 12:26:59;;;;;;;2.67;1.20;;;;;;;;;;6178560;28;19925;-71
2023/10/06 12:30:03;;;;;;;;;;;;;;;;;;6177316;28;20050;-71
2023/10/06 12:33:03;;;;;;;2.40;1.00;;;;;;;;;;6191490;28;19992;-72
2023/10/06 12:36:08;;;;;;;;;;;;;;;;;;6191747;28;20034;-72
2023/10/06 12:39:15;;;;;;;2.22;1.20;;;;;;;;;;6175634;28;19910;-71
2023/10/06 12:42:16;;;;;;;2.45;1.33;;;;;;;;;;6178812;28;20083;-72
2023/10/06 12:45:20;;;;;;;2.85;1.50;;;;;;;;;;6181131;28;20114;-72
2023/10/06 12:48:20;;;;;;;2.67;1.35;;;;;;;;;;6175258;28;20058;-71
2023/10/06 12:51:24;;;;;;;2.13;1.50;;;;;;;;;;6182564;28;20030;-72
2023/10/06 12:54:29;;;;;;;1.98;1.42;;;;;;;;;;6161228;28;20364;-70
2023/10/06 12:57:29;;;;;;;2.67;1.80;;;;;;;;;;6179344;28;20044;-71
2023/10/06 13:00:30;;;;;;;;;;;;;;;;;;6176046;28;20010;-70
2023/10/06 13:03:30;;;;;;;2.30;1.47;;;;;;;;;;6181772;28;19910;-70
2023/10/06 13:06:31;;;;;;;2.13;1.30;;;;;;;;;;6181917;28;20037;-68
2023/10/06 13:09:34;;;;;;;;;;;;;;;;;;6181609;28;20026;-69
2023/10/06 13:12:39;;;;;;;2.53;1.33;;;;;;;;;;6178039;28;19910;-69
2023/10/06 13:15:48;;;;;;;2.28;1.30;;;;;;;;;;6178568;28;20106;-68
2023/10/06 13:18:51;;;;;;;2.67;1.48;;;;;;;;;;6163972;28;20030;-68
2023/10/06 13:21:52;;;;;;;2.60;1.40;;;;;;;;;;6175368;28;20081;-67
2023/10/06 13:24:54;;;;;;;2.22;1.45;;;;;;;;;;6179401;28;20652;-68
2023/10/06 13:27:54;;;;;;;2.47;1.63;;;;;;;;;;6176747;28;20485;-68
2023/10/06 13:30:55;;;;;;;3.67;1.70;;;;;;;;;;6180349;28;20029;-69
2023/10/06 13:33:55;;;;;;;2.93;1.97;;;;;;;;;;6175904;28;20073;-69
2023/10/06 13:36:55;;;;;;;3.70;2.37;;;;;;;;;;6175893;28;20485;-69
2023/10/06 13:39:55;;;;;;;2.27;1.80;;;;;;;;;;6177065;28;20038;-69
2023/10/06 13:42:55;;;;;;;4.13;1.60;;;;;;;;;;6178376;28;20031;-68
2023/10/06 13:45:57;;;;;;;2.27;1.67;;;;;;;;;;6180851;28;20270;-69
2023/10/06 13:48:58;;;;;;;3.65;1.70;;;;;;;;;;6182565;28;20670;-71
2023/10/06 13:51:59;;;;;;;4.60;2.90;;;;;;;;;;6174981;28;20124;-72
2023/10/06 13:54:59;;;;;;;5.35;3.45;;;;;;;;;;6174273;28;20063;-70
2023/10/06 13:58:04;;;;;;;3.87;2.87;;;;;;;;;;6176574;28;20071;-70
2023/10/06 14:01:05;;;;;;;3.60;1.85;;;;;;;;;;6170640;28;20058;-70
2023/10/06 14:04:05;;;;;;;2.30;1.63;;;;;;;;;;6180356;28;20059;-70
2023/10/06 14:07:06;;;;;;;3.03;1.75;;;;;;;;;;6179123;28;20132;-70
2023/10/06 14:10:12;;;;;;;3.65;2.17;;;;;;;;;;6179426;28;20077;-70
2023/10/06 14:16:22;;;;;;;2.30;2.05;;;;;;;;;;6175164;28;20030;-71
2023/10/06 14:19:22;;;;;;;3.33;1.80;;;;;;;;;;6177700;28;20039;-70
2023/10/06 14:22:24;;;;;;;1.83;1.47;;;;;;;;;;6177342;28;20061;-70
2023/10/06 14:25:29;;;;;;;2.53;1.55;;;;;;;;;;6177281;28;20035;-70
2023/10/06 14:28:30;;;;;;;4.45;1.60;;;;;;;;;;6180615;28;20034;-71
2023/10/06 14:31:47;;;;;;;1.93;1.43;;;;;;;;;;6173679;28;20496;-71
2023/10/06 14:34:58;;;;;;;1.67;1.30;;;;;;;;;;6175308;28;20155;-71
2023/10/06 14:45:57;;;;;;;2.20;1.50;;;;;;;;;;6178272;28;20038;-71
2023/10/06 14:48:02;;;;;;;3.78;1.35;;;;;;;;;;6174593;28;20034;-71
2023/10/06 14:51:03;;;;;;;2.00;1.58;;;;;;;;;;6175100;28;20042;-71
2023/10/06 14:54:04;;;;;;;2.53;1.50;;;;;;;;;;6179931;28;20034;-71
2023/10/06 14:57:05;;;;;;;2.50;1.83;;;;;;;;;;6176471;28;20113;-71
2023/10/06 15:00:06;;;;;;;4.28;2.58;;;;;;;;;;6177665;28;20037;-71
2023/10/06 15:03:08;;;;;;;3.88;2.35;;;;;;;;;;6178760;28;20081;-74
2023/10/06 15:06:12;;;;;;;2.80;1.98;;;;;;;;;;6179858;28;20117;-78
2023/10/06 15:09:18;;;;;;;2.72;1.80;;;;;;;;;;6175589;28;20461;-77
2023/10/06 15:12:18;;;;;;;3.95;1.63;;;;;;;;;;6172194;28;20121;-77
2023/10/06 15:15:19;;;;;;;2.67;1.90;;;;;;;;;;6178336;28;20034;-77
2023/10/06 15:18:21;;;;;;;2.58;1.60;;;;;;;;;;6175440;28;20099;-77
2023/10/06 15:21:23;;;;;;;2.47;1.70;;;;;;;;;;6173257;28;20050;-77
2023/10/06 15:24:24;;;;;;;2.33;1.58;;;;;;;;;;6176152;28;20113;-77
2023/10/06 15:27:24;;;;;;;2.92;2.10;;;;;;;;;;6172893;28;20034;-77
2023/10/06 15:30:24;;;;;;;2.43;1.77;;;;;;;;;;6179373;28;20066;-77
2023/10/06 15:33:25;;;;;;;3.40;1.93;;;;;;;;;;6173649;28;20022;-77
2023/10/06 15:36:26;;;;;;;2.72;1.60;;;;;;;;;;6175104;28;20034;-76
2023/10/06 15:39:27;;;;;;;2.20;1.55;;;;;;;;;;6177694;28;20026;-77
2023/10/06 15:42:36;;;;;;;2.00;1.50;;;;;;;;;;6181620;28;20056;-77
2023/10/06 15:45:36;;;;;;;3.30;1.48;;;;;;;;;;6174084;28;20273;-77
2023/10/06 15:48:42;;;;;;;3.40;1.90;;;;;;;;;;6174992;28;20030;-76
2023/10/06 15:51:42;;;;;;;1.63;1.30;;;;;;;;;;6155790;28;20114;-76
2023/10/06 15:54:43;;;;;;;2.43;1.50;;;;;;;;;;6188684;28;20038;-76
2023/10/06 15:57:43;;;;;;;3.90;1.60;;;;;;;;;;6190796;28;20274;-76
2023/10/06 16:00:43;;;;;;;2.33;1.17;;;;;;;;;;6207669;28;20029;-76
2023/10/06 16:03:45;;;;;;;3.03;1.53;;;;;;;;;;6211170;28;20496;-76
2023/10/06 16:06:46;;;;;;;2.50;1.25;;;;;;;;;;6205497;28;20282;-76
2023/10/06 16:09:46;;;;;;;2.85;1.60;;;;;;;;;;6200978;28;20030;-76
2023/10/06 16:12:47;;;;;;;2.10;1.47;;;;;;;;;;6193260;28;20023;-76
2023/10/06 16:15:47;;;;;;;2.67;1.57;;;;;;;;;;6197792;28;20273;-76
2023/10/06 16:18:47;;;;;;;2.03;1.33;;;;;;;;;;6199864;28;20053;-76
2023/10/06 16:21:49;;;;;;;2.67;1.63;;;;;;;;;;6214402;28;20410;-77
2023/10/06 16:24:49;;;;;;;2.88;1.63;;;;;;;;;;6175321;28;20451;-76
2023/10/06 16:27:49;;;;;;;;;;;;;;;;;;6190695;28;20086;-76
2023/10/06 16:30:53;;;;;;;1.67;1.30;;;;;;;;;;6189268;28;19996;-76
2023/10/06 16:33:57;;;;;;;3.10;2.08;;;;;;;;;;6198673;28;20535;-76
2023/10/06 16:36:57;;;;;;;4.88;3.83;;;;;;;;;;6221745;28;20067;-76
2023/10/06 16:39:58;;;;;;;;;;;;;;;;;;6193527;28;20483;-76
2023/10/06 16:43:02;;;;;;;3.17;2.03;;;;;;;;;;6156554;28;19997;-76
2023/10/06 16:46:02;;;;;;;3.22;1.60;;;;;;;;;;6191732;28;20056;-76
2023/10/06 16:49:03;;;;;;;;;;;;;;;;;;6174544;28;20534;-76
2023/10/06 16:52:03;;;;;;;3.50;1.60;;;;;;;;;;6186537;28;19914;-76
2023/10/06 16:55:04;;;;;;;;;;;;;;;;;;6173841;28;20026;-76
2023/10/06 16:58:05;;;;;;;2.63;1.70;;;;;;;;;;6213869;28;19913;-77
2023/10/06 17:01:07;;;;;;;3.15;1.70;;;;;;;;;;6201429;28;20071;-76
2023/10/06 17:04:08;;;;;;;5.47;1.88;;;;;;;;;;6184039;28;20093;-76
2023/10/06 17:07:10;;;;;;;2.42;1.58;;;;;;;;;;6216285;28;20030;-76
2023/10/06 17:10:12;;;;;;;3.50;1.75;;;;;;;;;;6222158;28;20475;-76
2023/10/06 17:13:17;;;;;;;2.72;1.90;;;;;;;;;;6179471;28;20077;-77
2023/10/06 17:16:19;;;;;;;2.90;1.48;;;;;;;;;;6172979;28;20046;-76
2023/10/06 17:19:20;;;;;;;2.67;1.70;;;;;;;;;;6193160;28;20034;-76
2023/10/06 17:22:20;;;;;;;;;;;;;;;;;;6196510;28;20108;-77
2023/10/06 17:25:20;;;;;;;2.72;1.67;;;;;;;;;;6190182;28;20379;-77
2023/10/06 17:28:20;;;;;;;;;;;;;;;;;;6194445;28;20039;-76
2023/10/06 17:31:21;;;;;;;2.20;1.50;;;;;;;;;;6194457;28;19917;-77
2023/10/06 17:34:21;;;;;;;;;;;;;;;;;;6222084;28;20405;-77
2023/10/06 17:37:21;;;;;;;2.03;1.25;;;;;;;;;;6179699;28;19914;-77
2023/10/06 17:40:22;;;;;;;;;;;;;;;;;;6173661;28;20034;-76
2023/10/06 17:43:23;;;;;;;2.07;1.67;;;;;;;;;;6195975;28;20656;-77
2023/10/06 17:46:23;;;;;;;;;;;;;;;;;;6190937;28;20046;-76
2023/10/06 17:49:23;;;;;;;1.53;1.20;;;;;;;;;;6180829;28;19921;-76
2023/10/06 17:52:24;;;;;;;;;;;;;;;;;;6180669;28;20038;-76
2023/10/06 17:55:30;;;;;;;1.40;1.13;;;;;;;;;;6177486;28;19921;-76
2023/10/06 17:58:31;;;;;;;2.83;1.42;;;;;;;;;;6180811;28;20039;-77
2023/10/06 18:01:31;;;;;;;3.13;1.63;;;;;;;;;;6215095;28;20022;-76
2023/10/06 18:04:33;;;;;;;3.83;1.98;;;;;;;;;;6183428;28;20467;-77
2023/10/06 18:07:33;;;;;;;3.65;2.15;;;;;;;;;;6205846;28;20037;-77
2023/10/06 18:10:34;;;;;;;3.75;1.75;;;;;;;;;;6199932;28;20034;-76
2023/10/06 18:13:34;;;;;;;2.75;1.52;;;;;;;;;;6195580;28;20031;-77
2023/10/06 18:16:34;;;;;;;4.03;2.00;;;;;;;;;;6186265;28;20110;-76
2023/10/06 18:19:35;;;;;;;1.97;1.47;;;;;;;;;;6194804;28;20033;-76
2023/10/06 18:22:36;;;;;;;;;;;;;;;;;;6187363;28;20046;-77
2023/10/06 18:25:37;;;;;;;2.75;1.40;;;;;;;;;;6182161;28;20005;-77
2023/10/06 18:28:37;;;;;;;;;;;;;;;;;;6197973;28;20072;-76
2023/10/06 18:31:38;;;;;;;3.67;1.58;;;;;;;;;;6220490;28;20330;-76
2023/10/06 18:34:38;;;;;;;1.80;1.37;;;;;;;;;;6220382;28;20014;-76
2023/10/06 18:37:39;;;;;;;;;;;;;;;;;;6186063;28;20027;-76